createdAt,value
2023-01-18T00:01:14.655Z,5.43
2023-01-18T00:03:42.742Z,5.27
2023-01-18T00:06:12.537Z,6.37
2023-01-18T00:08:42.329Z,4.53
2023-01-18T00:11:15.466Z,5.20
2023-01-18T00:13:44.473Z,5.57
2023-01-18T00:16:15.619Z,4.53
2023-01-18T00:18:43.946Z,5.37
2023-01-18T00:21:13.243Z,6.27
2023-01-18T00:23:41.899Z,6.63
2023-01-18T00:26:13.407Z,6.40
2023-01-18T00:28:42.375Z,5.23
2023-01-18T00:31:11.868Z,4.93
2023-01-18T00:33:42.901Z,6.30
2023-01-18T00:36:11.445Z,6.17
2023-01-18T00:38:39.624Z,5.77
2023-01-18T00:41:07.964Z,4.97
2023-01-18T00:43:39.175Z,6.50
2023-01-18T00:46:08.088Z,5.83
2023-01-18T00:48:37.296Z,4.87
2023-01-18T00:51:06.236Z,5.83
2023-01-18T00:53:34.319Z,4.43
2023-01-18T00:56:04.009Z,4.70
2023-01-18T00:58:37.484Z,5.10
2023-01-18T01:01:11.688Z,4.87
2023-01-18T01:03:57.545Z,7.50
2023-01-18T01:06:47.621Z,4.70
2023-01-18T01:09:19.423Z,5.07
2023-01-18T01:12:06.197Z,4.50
2023-01-18T01:14:56.435Z,3.30
2023-01-18T01:17:41.964Z,6.00
2023-01-18T01:20:29.394Z,5.23
2023-01-18T01:23:15.160Z,5.67
2023-01-18T01:26:00.699Z,5.37
2023-01-18T01:28:28.753Z,5.30
2023-01-18T01:31:00.662Z,4.87
2023-01-18T01:33:29.789Z,5.10
2023-01-18T01:35:58.313Z,5.93
2023-01-18T01:38:26.548Z,4.43
2023-01-18T01:40:59.814Z,3.77
2023-01-18T01:43:46.699Z,4.63
2023-01-18T01:46:40.858Z,6.80
2023-01-18T01:49:15.085Z,4.97
2023-01-18T01:51:45.728Z,5.60
2023-01-18T01:54:20.562Z,5.73
2023-01-18T01:56:51.148Z,6.03
2023-01-18T01:59:19.977Z,5.33
2023-01-18T02:01:49.732Z,6.33
2023-01-18T02:04:18.652Z,6.67
2023-01-18T02:06:46.767Z,5.53
2023-01-18T02:09:16.891Z,7.43
2023-01-18T02:11:45.411Z,5.63
2023-01-18T02:14:16.779Z,4.53
2023-01-18T02:17:09.532Z,4.43
2023-01-18T02:20:21.280Z,5.57
2023-01-18T02:23:24.316Z,6.60
2023-01-18T02:26:37.188Z,6.67
2023-01-18T02:29:17.439Z,5.57
2023-01-18T02:32:01.635Z,4.47
2023-01-18T02:34:40.895Z,4.93
2023-01-18T02:37:17.921Z,7.80
2023-01-18T02:39:59.765Z,5.30
2023-01-18T02:42:47.430Z,6.93
2023-01-18T02:45:41.803Z,5.13
2023-01-18T02:48:11.221Z,5.30
2023-01-18T02:50:39.447Z,6.60
2023-01-18T02:53:07.505Z,6.20
2023-01-18T02:55:45.730Z,6.93
2023-01-18T02:58:23.831Z,6.97
2023-01-18T03:01:00.652Z,5.53
2023-01-18T03:03:29.744Z,7.00
2023-01-18T03:06:02.952Z,7.77
2023-01-18T03:08:37.279Z,8.33
2023-01-18T03:11:12.349Z,5.90
2023-01-18T03:14:14.355Z,6.43
2023-01-18T03:16:59.264Z,6.00
2023-01-18T03:20:01.040Z,6.80
2023-01-18T03:22:49.746Z,4.83
2023-01-18T03:25:23.154Z,6.07
2023-01-18T03:28:12.999Z,5.53
2023-01-18T03:31:01.029Z,4.67
2023-01-18T03:33:42.775Z,4.57
2023-01-18T03:36:18.421Z,3.27
2023-01-18T03:38:51.767Z,4.30
2023-01-18T03:41:22.967Z,5.60
2023-01-18T03:43:53.288Z,4.47
2023-01-18T03:46:25.633Z,5.33
2023-01-18T03:48:55.171Z,4.97
2023-01-18T03:51:27.672Z,5.87
2023-01-18T03:54:06.544Z,4.93
2023-01-18T03:56:43.307Z,5.67
2023-01-18T03:59:11.483Z,6.40
2023-01-18T04:01:39.700Z,7.47
2023-01-18T04:04:09.266Z,8.37
2023-01-18T04:06:37.886Z,7.93
2023-01-18T04:09:05.956Z,8.70
2023-01-18T04:11:34.027Z,9.73
2023-01-18T04:14:02.085Z,6.83
2023-01-18T04:16:30.168Z,7.73
2023-01-18T04:18:58.187Z,8.00
2023-01-18T04:21:27.568Z,7.87
2023-01-18T04:23:55.636Z,6.87
2023-01-18T04:26:23.689Z,5.70
2023-01-18T04:28:51.777Z,6.23
2023-01-18T04:31:19.891Z,6.33
2023-01-18T04:33:51.435Z,5.13
2023-01-18T04:36:20.054Z,5.43
2023-01-18T04:38:53.493Z,5.80
2023-01-18T04:41:21.933Z,5.07
2023-01-18T04:43:50.017Z,5.87
2023-01-18T04:46:19.234Z,4.87
2023-01-18T04:48:51.699Z,5.90
2023-01-18T04:51:20.426Z,5.13
2023-01-18T04:53:49.841Z,4.03
2023-01-18T04:56:18.628Z,4.17
2023-01-18T04:58:47.336Z,4.27
2023-01-18T05:01:16.980Z,4.13
2023-01-18T05:03:45.461Z,2.97
2023-01-18T05:06:16.336Z,2.93
2023-01-18T05:08:44.630Z,4.30
2023-01-18T05:11:16.426Z,3.97
2023-01-18T05:13:45.671Z,2.90
2023-01-18T05:16:16.925Z,1.87
2023-01-18T05:18:45.710Z,2.63
2023-01-18T05:21:14.638Z,3.30
2023-01-18T05:23:43.077Z,3.10
2023-01-18T05:26:18.078Z,2.83
2023-01-18T05:28:47.287Z,2.40
2023-01-18T05:31:16.319Z,3.20
2023-01-18T05:33:44.384Z,2.37
2023-01-18T05:36:12.475Z,3.20
2023-01-18T05:38:40.631Z,3.37
2023-01-18T05:41:09.085Z,4.13
2023-01-18T05:43:41.152Z,2.63
2023-01-18T05:46:09.571Z,3.90
2023-01-18T05:48:37.935Z,2.73
2023-01-18T05:51:09.853Z,2.97
2023-01-18T05:53:38.495Z,3.43
2023-01-18T05:56:09.088Z,4.30
2023-01-18T05:58:38.992Z,2.97
2023-01-18T06:01:08.514Z,2.47
2023-01-18T06:03:36.954Z,3.33
2023-01-18T06:06:05.550Z,3.33
2023-01-18T06:08:33.886Z,4.17
2023-01-18T06:11:02.562Z,3.60
2023-01-18T06:13:33.440Z,2.20
2023-01-18T06:16:04.239Z,2.47
2023-01-18T06:18:34.399Z,15.43
2023-01-18T06:21:04.243Z,5.13
2023-01-18T06:23:32.554Z,4.07
2023-01-18T06:26:00.654Z,6.37
2023-01-18T06:28:30.663Z,4.27
2023-01-18T06:30:59.272Z,11.07
2023-01-18T06:33:28.728Z,7.63
2023-01-18T06:35:56.894Z,7.93
2023-01-18T06:38:24.925Z,10.03
2023-01-18T06:40:52.980Z,8.13
2023-01-18T06:43:22.960Z,8.77
2023-01-18T06:45:55.283Z,6.80
2023-01-18T06:48:25.571Z,6.33
2023-01-18T06:50:57.932Z,4.53
2023-01-18T06:53:26.466Z,5.03
2023-01-18T06:55:56.842Z,4.03
2023-01-18T06:58:25.950Z,3.83
2023-01-18T07:00:56.684Z,4.77
2023-01-18T07:03:25.013Z,4.60
2023-01-18T07:05:55.996Z,4.43
2023-01-18T07:08:24.866Z,4.47
2023-01-18T07:10:53.650Z,4.13
2023-01-18T07:13:23.408Z,5.60
2023-01-18T07:15:56.514Z,3.30
2023-01-18T07:18:25.392Z,4.87
2023-01-18T07:21:03.424Z,4.83
2023-01-18T07:23:32.230Z,6.57
2023-01-18T07:26:05.154Z,4.23
2023-01-18T07:28:34.222Z,6.03
2023-01-18T07:31:03.672Z,6.17
2023-01-18T07:33:32.378Z,4.00
2023-01-18T07:36:05.050Z,4.80
2023-01-18T07:38:34.435Z,6.83
2023-01-18T07:41:06.303Z,5.30
2023-01-18T07:43:37.552Z,7.37
2023-01-18T07:46:11.232Z,6.33
2023-01-18T07:48:42.366Z,4.83
2023-01-18T07:51:12.688Z,6.23
2023-01-18T07:53:41.795Z,5.57
2023-01-18T07:56:14.741Z,6.70
2023-01-18T07:58:43.422Z,6.63
2023-01-18T08:01:14.350Z,6.77
2023-01-18T08:03:44.775Z,4.77
2023-01-18T08:06:17.073Z,7.37
2023-01-18T08:08:46.214Z,5.67
2023-01-18T08:11:14.733Z,7.00
2023-01-18T08:13:43.519Z,6.17
2023-01-18T08:16:13.811Z,8.17
2023-01-18T08:18:42.645Z,6.83
2023-01-18T08:21:15.116Z,5.43
2023-01-18T08:23:43.572Z,6.00
2023-01-18T08:26:15.126Z,6.47
2023-01-18T08:28:44.791Z,5.37
2023-01-18T08:31:16.347Z,7.87
2023-01-18T08:33:47.766Z,7.10
2023-01-18T08:36:21.095Z,4.90
2023-01-18T08:38:50.402Z,5.90
2023-01-18T08:41:19.549Z,5.77
2023-01-18T08:43:51.148Z,4.70
2023-01-18T08:46:20.216Z,5.60
2023-01-18T08:48:51.382Z,5.53
2023-01-18T08:51:23.159Z,4.63
2023-01-18T08:53:53.533Z,4.70
2023-01-18T08:56:22.191Z,3.93
2023-01-18T08:58:52.165Z,4.50
2023-01-18T09:01:23.159Z,6.43
2023-01-18T09:03:54.976Z,3.83
2023-01-18T09:06:25.235Z,4.23
2023-01-18T09:08:53.897Z,3.73
2023-01-18T09:11:22.221Z,4.00
2023-01-18T09:14:00.565Z,4.50
2023-01-18T09:16:30.011Z,4.20
2023-01-18T09:18:58.589Z,6.20
2023-01-18T09:21:29.611Z,5.90
2023-01-18T09:23:59.388Z,4.87
2023-01-18T09:26:28.948Z,4.90
2023-01-18T09:28:57.819Z,3.20
2023-01-18T09:31:28.414Z,5.20
2023-01-18T09:34:06.331Z,5.10
2023-01-18T09:36:50.091Z,4.57
2023-01-18T09:39:18.898Z,4.17
2023-01-18T09:41:57.005Z,5.07
2023-01-18T09:44:30.932Z,4.00
2023-01-18T09:47:04.854Z,4.57
2023-01-18T09:49:38.874Z,4.60
2023-01-18T09:52:25.766Z,4.97
2023-01-18T09:55:03.680Z,4.70
2023-01-18T09:57:53.014Z,6.43
2023-01-18T10:00:25.866Z,4.43
2023-01-18T10:03:00.807Z,4.77
2023-01-18T10:05:37.497Z,2.93
2023-01-18T10:08:17.835Z,5.63
2023-01-18T10:10:59.805Z,5.23
2023-01-18T10:13:43.645Z,5.63
2023-01-18T10:16:15.464Z,5.00
2023-01-18T10:18:48.178Z,7.07
2023-01-18T10:21:27.951Z,6.67
2023-01-18T10:24:33.975Z,7.03
2023-01-18T10:27:27.741Z,5.83
2023-01-18T10:30:25.808Z,5.83
2023-01-18T10:32:58.815Z,6.20
2023-01-18T10:35:32.591Z,6.57
2023-01-18T10:38:06.995Z,6.77
2023-01-18T10:40:38.940Z,8.00
2023-01-18T10:43:15.074Z,5.17
2023-01-18T10:45:43.600Z,4.80
2023-01-18T10:48:32.106Z,6.07
2023-01-18T10:51:03.136Z,6.63
2023-01-18T10:53:35.269Z,7.90
2023-01-18T10:56:08.262Z,8.30
2023-01-18T10:58:44.806Z,8.17
2023-01-18T11:01:17.854Z,5.17
2023-01-18T11:03:49.706Z,5.20
2023-01-18T11:06:20.511Z,6.23
2023-01-18T11:08:49.567Z,5.27
2023-01-18T11:11:50.998Z,3.37
2023-01-18T11:14:30.433Z,3.00
2023-01-18T11:17:00.769Z,4.73
2023-01-18T11:19:29.060Z,6.73
2023-01-18T11:21:57.470Z,4.20
2023-01-18T11:24:32.807Z,4.93
2023-01-18T11:27:06.609Z,5.70
2023-01-18T11:29:39.476Z,5.43
2023-01-18T11:32:17.254Z,4.77
2023-01-18T11:34:49.059Z,3.83
2023-01-18T11:37:34.348Z,5.93
2023-01-18T11:40:27.908Z,4.37
2023-01-18T11:43:03.623Z,4.60
2023-01-18T11:45:37.584Z,6.97
2023-01-18T11:48:15.788Z,7.73
2023-01-18T11:50:48.402Z,4.50
2023-01-18T11:53:30.852Z,4.37
2023-01-18T11:56:06.555Z,5.03
2023-01-18T11:58:37.682Z,5.57
2023-01-18T12:01:34.049Z,8.13
2023-01-18T12:04:07.419Z,3.87
2023-01-18T12:06:49.823Z,3.90
2023-01-18T12:09:36.380Z,3.93
2023-01-18T12:12:30.289Z,7.03
2023-01-18T12:15:24.414Z,6.40
2023-01-18T12:18:14.112Z,3.77
2023-01-18T12:20:53.652Z,4.47
2023-01-18T12:24:03.993Z,3.43
2023-01-18T12:26:47.785Z,4.33
2023-01-18T12:29:53.682Z,3.73
2023-01-18T12:32:46.096Z,4.90
2023-01-18T12:35:35.308Z,7.27
2023-01-18T12:38:17.384Z,4.30
2023-01-18T12:41:32.535Z,5.10
2023-01-18T12:44:36.107Z,4.77
2023-01-18T12:47:21.899Z,4.43
2023-01-18T12:49:57.922Z,3.87
2023-01-18T12:52:28.041Z,4.67
2023-01-18T12:55:01.939Z,4.33
2023-01-18T12:57:30.758Z,3.60
2023-01-18T13:00:07.160Z,3.90
2023-01-18T13:02:41.515Z,5.00
2023-01-18T13:05:19.274Z,3.00
2023-01-18T13:07:55.196Z,5.63
2023-01-18T13:10:26.528Z,8.37
2023-01-18T13:12:57.315Z,3.23
2023-01-18T13:15:38.707Z,4.33
2023-01-18T13:18:16.456Z,4.73
2023-01-18T13:21:04.867Z,5.00
2023-01-18T13:23:45.154Z,3.30
2023-01-18T13:26:25.750Z,4.00
2023-01-18T13:29:24.083Z,4.67
2023-01-18T13:31:53.032Z,5.03
2023-01-18T13:34:44.939Z,3.27
2023-01-18T13:37:51.042Z,4.57
2023-01-18T13:40:30.661Z,5.90
2023-01-18T13:42:59.680Z,7.63
2023-01-18T13:45:29.813Z,6.67
2023-01-18T13:48:04.907Z,3.77
2023-01-18T13:50:47.636Z,4.93
2023-01-18T13:53:25.298Z,5.77
2023-01-18T13:56:36.570Z,5.97
2023-01-18T13:59:23.366Z,3.47
2023-01-18T14:01:55.763Z,3.43
2023-01-18T14:04:31.895Z,3.30
2023-01-18T14:07:03.775Z,4.10
2023-01-18T14:09:41.270Z,5.73
2023-01-18T14:12:11.676Z,4.47
2023-01-18T14:14:56.598Z,4.70
2023-01-18T14:17:26.577Z,4.30
2023-01-18T14:20:47.763Z,4.50
2023-01-18T14:23:38.598Z,4.87
2023-01-18T14:26:11.351Z,6.37
2023-01-18T14:28:47.974Z,4.90
2023-01-18T14:31:22.027Z,12.43
2023-01-18T14:33:51.023Z,4.10
2023-01-18T14:36:24.872Z,7.43
2023-01-18T14:39:14.730Z,5.87
2023-01-18T14:41:47.905Z,5.10
2023-01-18T14:44:22.156Z,5.13
2023-01-18T14:46:52.531Z,5.57
2023-01-18T14:49:26.597Z,3.83
2023-01-18T14:51:56.472Z,4.73
2023-01-18T14:54:26.293Z,3.77
2023-01-18T14:57:04.261Z,4.13
2023-01-18T14:59:33.567Z,5.00
2023-01-18T15:02:15.074Z,4.10
2023-01-18T15:04:45.710Z,11.57
2023-01-18T15:07:20.501Z,10.53
2023-01-18T15:09:49.180Z,7.23
2023-01-18T15:12:25.042Z,4.30
2023-01-18T15:14:55.458Z,6.93
2023-01-18T15:17:26.919Z,5.53
2023-01-18T15:19:59.664Z,6.70
2023-01-18T15:22:32.410Z,4.07
2023-01-18T15:25:02.076Z,4.20
2023-01-18T15:27:33.454Z,6.20
2023-01-18T15:30:03.770Z,7.17
2023-01-18T15:32:36.688Z,5.40
2023-01-18T15:35:07.348Z,6.07
2023-01-18T15:37:38.531Z,5.60
2023-01-18T15:40:27.182Z,5.93
2023-01-18T15:43:06.429Z,4.07
2023-01-18T15:45:38.266Z,7.03
2023-01-18T15:48:14.328Z,3.90
2023-01-18T15:50:47.379Z,5.27
2023-01-18T15:53:20.921Z,3.60
2023-01-18T15:55:52.563Z,2.43
2023-01-18T15:58:33.043Z,2.97
2023-01-18T16:01:04.037Z,5.97
2023-01-18T16:03:37.787Z,3.57
2023-01-18T16:06:12.519Z,5.93
2023-01-18T16:09:10.635Z,6.00
2023-01-18T16:11:49.848Z,5.77
2023-01-18T16:14:32.713Z,4.10
2023-01-18T16:17:06.677Z,3.97
2023-01-18T16:19:37.359Z,2.17
2023-01-18T16:22:07.698Z,3.63
2023-01-18T16:24:39.737Z,2.90
2023-01-18T16:27:14.003Z,5.10
2023-01-18T16:29:46.453Z,3.30
2023-01-18T16:32:31.722Z,6.23
2023-01-18T16:35:02.864Z,10.17
2023-01-18T16:37:31.637Z,11.63
2023-01-18T16:40:00.126Z,8.20
2023-01-18T16:42:37.338Z,5.90
2023-01-18T16:45:14.725Z,3.83
2023-01-18T16:47:42.878Z,3.60
2023-01-18T16:50:15.666Z,7.60
2023-01-18T16:52:44.654Z,5.37
2023-01-18T16:55:14.224Z,4.27
2023-01-18T16:57:43.421Z,5.43
2023-01-18T17:00:19.139Z,4.17
2023-01-18T17:02:47.383Z,2.73
2023-01-18T17:05:16.736Z,3.27
2023-01-18T17:07:45.939Z,3.83
2023-01-18T17:10:28.065Z,7.03
2023-01-18T17:12:56.225Z,5.53
2023-01-18T17:15:28.147Z,8.67
2023-01-18T17:17:56.466Z,9.17
2023-01-18T17:20:27.383Z,4.80
2023-01-18T17:22:57.796Z,8.07
2023-01-18T17:25:26.142Z,13.13
2023-01-18T17:28:00.877Z,15.63
2023-01-18T17:30:56.081Z,20.87
2023-01-18T17:33:26.602Z,17.73
2023-01-18T17:35:58.051Z,16.17
2023-01-18T17:38:29.669Z,7.83
2023-01-18T17:40:58.913Z,9.83
2023-01-18T17:43:34.933Z,6.70
2023-01-18T17:46:07.674Z,6.90
2023-01-18T17:48:36.012Z,10.60
2023-01-18T17:51:33.006Z,6.63
2023-01-18T17:54:10.228Z,6.60
2023-01-18T17:56:41.382Z,6.43
2023-01-18T17:59:10.845Z,3.90
2023-01-18T18:01:40.562Z,3.83
2023-01-18T18:04:11.606Z,4.10
2023-01-18T18:06:49.333Z,5.30
2023-01-18T18:09:21.874Z,4.77
2023-01-18T18:11:49.981Z,5.73
2023-01-18T18:14:18.479Z,3.13
2023-01-18T18:16:51.258Z,5.23
2023-01-18T18:19:19.422Z,7.53
2023-01-18T18:21:47.580Z,6.53
2023-01-18T18:24:15.735Z,7.73
2023-01-18T18:26:43.932Z,7.13
2023-01-18T18:29:12.272Z,8.53
2023-01-18T18:31:40.490Z,6.67
2023-01-18T18:34:10.248Z,9.23
2023-01-18T18:36:38.940Z,8.80
2023-01-18T18:39:08.631Z,9.50
2023-01-18T18:41:39.633Z,7.00
2023-01-18T18:44:07.856Z,8.47
2023-01-18T18:46:36.107Z,7.30
2023-01-18T18:49:04.485Z,10.90
2023-01-18T18:51:35.325Z,11.00
2023-01-18T18:54:04.512Z,6.73
2023-01-18T18:56:33.299Z,7.47
2023-01-18T18:59:02.110Z,8.17
2023-01-18T19:01:30.716Z,10.80
2023-01-18T19:03:59.628Z,6.63
2023-01-18T19:06:28.823Z,6.43
2023-01-18T19:08:58.618Z,8.57
2023-01-18T19:11:26.929Z,9.77
2023-01-18T19:13:56.744Z,7.60
2023-01-18T19:16:24.921Z,5.87
2023-01-18T19:18:53.596Z,9.33
2023-01-18T19:21:21.711Z,8.13
2023-01-18T19:23:50.790Z,5.40
2023-01-18T19:26:20.336Z,6.83
2023-01-18T19:28:48.500Z,6.37
2023-01-18T19:31:16.907Z,5.70
2023-01-18T19:33:45.189Z,5.70
2023-01-18T19:36:16.667Z,5.73
2023-01-18T19:38:52.650Z,11.13
2023-01-18T19:41:31.010Z,5.13
2023-01-18T19:43:59.205Z,6.93
2023-01-18T19:46:27.422Z,7.57
2023-01-18T19:48:59.376Z,7.27
2023-01-18T19:51:27.960Z,6.40
2023-01-18T19:53:58.819Z,5.10
2023-01-18T19:56:29.091Z,16.83
2023-01-18T19:58:57.671Z,8.53
2023-01-18T20:01:36.016Z,5.77
2023-01-18T20:04:06.065Z,6.77
2023-01-18T20:06:37.385Z,7.07
2023-01-18T20:09:15.792Z,5.80
2023-01-18T20:11:48.515Z,6.13
2023-01-18T20:14:18.228Z,6.63
2023-01-18T20:16:47.252Z,6.13
2023-01-18T20:19:17.419Z,6.63
2023-01-18T20:21:48.492Z,8.37
2023-01-18T20:24:17.809Z,7.93
2023-01-18T20:26:47.325Z,9.07
2023-01-18T20:29:15.441Z,7.87
2023-01-18T20:31:49.643Z,9.73
2023-01-18T20:34:18.378Z,13.20
2023-01-18T20:36:49.923Z,17.83
2023-01-18T20:39:19.073Z,17.30
2023-01-18T20:41:50.763Z,11.17
2023-01-18T20:44:18.970Z,9.80
2023-01-18T20:46:48.394Z,7.97
2023-01-18T20:49:20.530Z,8.53
2023-01-18T20:51:50.593Z,9.20
2023-01-18T20:54:20.110Z,9.57
2023-01-18T20:56:52.247Z,7.17
2023-01-18T20:59:21.743Z,7.90
2023-01-18T21:01:50.110Z,6.77
2023-01-18T21:04:20.598Z,7.47
2023-01-18T21:06:49.978Z,5.80
2023-01-18T21:09:18.487Z,9.57
2023-01-18T21:11:46.757Z,10.20
2023-01-18T21:14:16.843Z,13.77
2023-01-18T21:16:45.502Z,8.17
2023-01-18T21:19:13.862Z,8.00
2023-01-18T21:21:41.980Z,8.73
2023-01-18T21:24:10.640Z,7.63
2023-01-18T21:26:38.854Z,7.83
2023-01-18T21:29:07.276Z,9.50
2023-01-18T21:31:37.617Z,13.13
2023-01-18T21:34:07.795Z,7.77
2023-01-18T21:36:36.064Z,9.90
2023-01-18T21:39:04.399Z,13.80
2023-01-18T21:41:50.098Z,7.93
2023-01-18T21:44:35.896Z,7.53
2023-01-18T21:47:05.493Z,9.73
2023-01-18T21:50:16.640Z,7.17
2023-01-18T21:52:56.945Z,8.83
2023-01-18T21:55:25.222Z,7.00
2023-01-18T21:58:07.361Z,8.37
2023-01-18T22:00:38.596Z,7.00
2023-01-18T22:03:10.434Z,7.50
2023-01-18T22:05:39.865Z,6.37
2023-01-18T22:08:14.594Z,7.70
2023-01-18T22:10:46.689Z,6.60
2023-01-18T22:13:15.229Z,6.60
2023-01-18T22:15:43.308Z,8.47
2023-01-18T22:18:12.807Z,7.33
2023-01-18T22:20:40.892Z,12.87
2023-01-18T22:23:09.628Z,10.80
2023-01-18T22:25:39.512Z,8.60
2023-01-18T22:28:08.407Z,8.37
2023-01-18T22:30:36.666Z,7.23
2023-01-18T22:33:05.043Z,8.93
2023-01-18T22:35:38.005Z,8.80
2023-01-18T22:38:06.341Z,8.37
2023-01-18T22:40:37.648Z,7.83
2023-01-18T22:43:05.694Z,7.93
2023-01-18T22:45:33.832Z,9.27
2023-01-18T22:48:02.319Z,7.33
2023-01-18T22:50:30.719Z,6.23
2023-01-18T22:53:00.733Z,9.63
2023-01-18T22:55:31.254Z,8.50
2023-01-18T22:58:00.338Z,7.63
2023-01-18T23:00:29.821Z,6.43
2023-01-18T23:02:57.950Z,10.30
2023-01-18T23:05:26.356Z,8.23
2023-01-18T23:07:54.662Z,7.73
2023-01-18T23:10:24.168Z,7.87
2023-01-18T23:12:52.766Z,7.50
2023-01-18T23:15:38.660Z,7.20
2023-01-18T23:18:07.075Z,7.37
2023-01-18T23:20:35.946Z,6.83
2023-01-18T23:23:05.114Z,5.73
2023-01-18T23:25:34.752Z,6.30
2023-01-18T23:28:03.299Z,6.50
2023-01-18T23:30:32.635Z,6.07
2023-01-18T23:33:00.661Z,8.40
2023-01-18T23:35:28.694Z,8.70
2023-01-18T23:37:56.783Z,11.23
2023-01-18T23:40:42.490Z,6.53
2023-01-18T23:43:29.508Z,8.07
2023-01-18T23:46:15.215Z,8.37
2023-01-18T23:49:00.668Z,7.90
2023-01-18T23:51:46.322Z,8.50
2023-01-18T23:54:15.851Z,11.33
2023-01-18T23:56:44.712Z,8.10
2023-01-18T23:59:16.590Z,9.37
